📊 Raw Sensor Data
Showing records 43626 to 43650 of 85,021 total
| ID | Distance (ft) | Battery V | Battery A | Int Temp (°F) | Int Humid (%) | Ext Temp (°F) | Solar V | RSSI | SNR | Time Stamp |
|---|---|---|---|---|---|---|---|---|---|---|
| 41408 | 15.5 | 4.03 | 28 | 54 | 40 | 58 | 4.50 | -68 | 8 | 05/23/2025 07:30 AM |
| 41407 | 15.4 | 4.00 | 10 | 52 | 41 | 56 | 4.50 | -69 | 8 | 05/23/2025 07:15 AM |
| 41406 | 15.4 | 3.97 | 10 | 51 | 41 | 54 | 4.50 | -68 | 8 | 05/23/2025 07:00 AM |
| 41405 | 15.4 | 3.97 | 10 | 49 | 41 | 51 | 4.50 | -67 | 8 | 05/23/2025 06:45 AM |
| 41404 | 15.4 | 3.96 | 7 | 49 | 41 | 51 | 4.50 | -67 | 8 | 05/23/2025 06:30 AM |
| 41403 | 15.3 | 3.87 | 0 | 47 | 41 | 50 | 4.50 | -69 | 8 | 05/23/2025 06:15 AM |
| 41402 | 15.3 | 3.86 | -35 | 46 | 42 | 47 | 4.50 | -67 | 8 | 05/23/2025 06:00 AM |
| 41401 | 15.3 | 3.86 | -10 | 47 | 41 | 48 | 3.20 | -67 | 7 | 05/23/2025 05:45 AM |
| 41400 | 14.9 | 3.93 | -5 | 47 | 41 | 49 | 0.30 | -68 | 8 | 05/23/2025 05:30 AM |
| 41399 | 14.9 | 3.87 | -5 | 46 | 42 | 49 | 0.00 | -68 | 8 | 05/23/2025 05:15 AM |
| 41398 | 14.9 | 3.87 | -5 | 46 | 42 | 47 | 0.00 | -68 | 8 | 05/23/2025 05:00 AM |
| 41397 | 14.9 | 3.87 | -5 | 46 | 42 | 46 | 0.00 | -67 | 8 | 05/23/2025 04:45 AM |
| 41396 | 14.9 | 3.87 | -5 | 47 | 42 | 48 | 0.10 | -67 | 9 | 05/23/2025 04:30 AM |
| 41395 | 14.9 | 3.87 | -5 | 47 | 42 | 49 | 0.00 | -67 | 8 | 05/23/2025 04:15 AM |
| 41394 | 14.9 | 3.87 | -5 | 47 | 42 | 49 | 0.10 | -67 | 8 | 05/23/2025 04:00 AM |
| 41393 | 14.9 | 3.86 | -5 | 48 | 42 | 49 | 0.00 | -67 | 8 | 05/23/2025 03:45 AM |
| 41392 | 14.9 | 3.86 | -5 | 47 | 42 | 49 | 0.00 | -67 | 8 | 05/23/2025 03:30 AM |
| 41391 | 14.9 | 3.84 | -5 | 48 | 43 | 49 | 0.00 | -68 | 8 | 05/23/2025 03:00 AM |
| 41390 | 15.3 | 3.83 | -5 | 47 | 43 | 48 | 0.00 | -67 | 8 | 05/23/2025 02:45 AM |
| 41389 | 15.3 | 3.94 | -5 | 48 | 43 | 48 | 0.00 | -67 | 8 | 05/23/2025 02:30 AM |
| 41388 | 15.3 | 3.87 | -5 | 49 | 43 | 51 | 0.00 | -66 | 8 | 05/23/2025 02:15 AM |
| 41387 | 15.3 | 3.84 | -5 | 49 | 43 | 50 | 0.00 | -68 | 8 | 05/23/2025 02:00 AM |
| 41386 | 15.3 | 3.86 | -5 | 50 | 43 | 50 | 0.00 | -66 | 8 | 05/23/2025 01:45 AM |
| 41385 | 15.3 | 3.85 | -5 | 50 | 43 | 52 | 0.00 | -67 | 8 | 05/23/2025 01:30 AM |
| 41384 | 15.3 | 3.94 | -5 | 51 | 43 | 52 | 0.10 | -66 | 8 | 05/23/2025 01:15 AM |